createdAt,value
2016-05-17T00:00:07.906Z,1010.77
2016-05-17T00:01:07.893Z,1010.8
2016-05-17T00:02:07.896Z,1010.75
2016-05-17T00:03:07.883Z,1010.77
2016-05-17T00:04:07.886Z,1010.77
2016-05-17T00:05:07.872Z,1010.78
2016-05-17T00:06:07.875Z,1010.8
2016-05-17T00:07:07.863Z,1010.79
2016-05-17T00:08:07.849Z,1010.77
2016-05-17T00:09:07.836Z,1010.75
2016-05-17T00:10:07.839Z,1010.74
2016-05-17T00:11:07.827Z,1010.79
2016-05-17T00:12:07.830Z,1010.77
2016-05-17T00:13:07.816Z,1010.77
2016-05-17T00:14:07.803Z,1010.76
2016-05-17T00:15:07.790Z,1010.72
2016-05-17T00:16:07.793Z,1010.74
2016-05-17T00:17:07.780Z,1010.75
2016-05-17T00:18:07.782Z,1010.76
2016-05-17T00:19:07.771Z,1010.75
2016-05-17T00:20:07.757Z,1010.75
2016-05-17T00:21:07.760Z,1010.76
2016-05-17T00:22:07.747Z,1010.74
2016-05-17T00:23:07.734Z,1010.76
2016-05-17T00:24:07.737Z,1010.77
2016-05-17T00:25:07.723Z,1010.81
2016-05-17T00:26:07.726Z,1010.75
2016-05-17T00:27:07.713Z,1010.78
2016-05-17T00:28:07.701Z,1010.74
2016-05-17T00:29:07.703Z,1010.74
2016-05-17T00:30:07.690Z,1010.79
2016-05-17T00:31:07.692Z,1010.75
2016-05-17T00:32:07.681Z,1010.78
2016-05-17T00:33:07.667Z,1010.69
2016-05-17T00:34:07.653Z,1010.67
2016-05-17T00:35:07.656Z,1010.68
2016-05-17T00:36:07.644Z,1010.71
2016-05-17T00:37:07.881Z,1010.71
2016-05-17T00:38:07.634Z,1010.72
2016-05-17T00:39:07.620Z,1010.74
2016-05-17T00:40:07.623Z,1010.71
2016-05-17T00:41:07.610Z,1010.72
2016-05-17T00:42:07.613Z,1010.76
2016-05-17T00:43:07.600Z,1010.73
2016-05-17T00:44:07.588Z,1010.73
2016-05-17T00:45:07.591Z,1010.72
2016-05-17T00:46:07.577Z,1010.71
2016-05-17T00:47:07.564Z,1010.66
2016-05-17T00:48:07.567Z,1010.7
2016-05-17T00:49:07.554Z,1010.7
2016-05-17T00:50:07.540Z,1010.68
2016-05-17T00:51:07.543Z,1010.68
2016-05-17T00:52:07.530Z,1010.64
2016-05-17T00:53:07.533Z,1010.65
2016-05-17T00:54:07.520Z,1010.61
2016-05-17T00:55:07.504Z,1010.62
2016-05-17T00:56:07.507Z,1010.59
2016-05-17T00:57:08.497Z,1010.56
2016-05-17T00:58:07.640Z,1010.63
2016-05-17T01:00:07.471Z,1010.69
2016-05-17T01:02:07.917Z,1010.67
2016-05-17T01:03:07.448Z,1010.7
2016-05-17T01:04:07.639Z,1010.69
2016-05-17T01:05:07.672Z,1010.66
2016-05-17T01:06:07.425Z,1010.64
2016-05-17T01:07:07.411Z,1010.6
2016-05-17T01:08:07.415Z,1010.62
2016-05-17T01:09:07.402Z,1010.61
2016-05-17T01:10:07.405Z,1010.54
2016-05-17T01:11:07.392Z,1010.5
2016-05-17T01:12:07.378Z,1010.49
2016-05-17T01:13:07.381Z,1010.51
2016-05-17T01:14:07.369Z,1010.48
2016-05-17T01:15:07.355Z,1010.5
2016-05-17T01:16:07.374Z,1010.46
2016-05-17T01:17:07.345Z,1010.47
2016-05-17T01:18:07.333Z,1010.42
2016-05-17T01:19:07.335Z,1010.46
2016-05-17T01:20:07.322Z,1010.48
2016-05-17T01:21:07.310Z,1010.45
2016-05-17T01:22:07.312Z,1010.47
2016-05-17T01:23:07.299Z,1010.47
2016-05-17T01:24:07.301Z,1010.48
2016-05-17T01:25:07.288Z,1010.44
2016-05-17T01:26:07.276Z,1010.41
2016-05-17T01:27:07.263Z,1010.43
2016-05-17T01:28:07.265Z,1010.39
2016-05-17T01:29:07.252Z,1010.41
2016-05-17T01:30:07.254Z,1010.42
2016-05-17T01:31:07.242Z,1010.38
2016-05-17T01:32:07.229Z,1010.41
2016-05-17T01:33:07.231Z,1010.39
2016-05-17T01:34:07.220Z,1010.37
2016-05-17T01:35:07.206Z,1010.4
2016-05-17T01:36:07.209Z,1010.41
2016-05-17T01:37:07.196Z,1010.38
2016-05-17T01:38:07.198Z,1010.37
2016-05-17T01:39:07.186Z,1010.37
2016-05-17T01:40:07.172Z,1010.34
2016-05-17T01:41:07.175Z,1010.36
2016-05-17T01:42:07.162Z,1010.34
2016-05-17T01:43:07.150Z,1010.33
2016-05-17T01:44:07.152Z,1010.33
2016-05-17T01:45:07.139Z,1010.36
2016-05-17T01:46:07.141Z,1010.3
2016-05-17T01:47:07.129Z,1010.3
2016-05-17T01:48:07.116Z,1010.27
2016-05-17T01:49:07.118Z,1010.3
2016-05-17T01:50:07.122Z,1010.31
2016-05-17T01:51:07.108Z,1010.27
2016-05-17T01:52:07.096Z,1010.29
2016-05-17T01:53:07.083Z,1010.25
2016-05-17T01:54:07.085Z,1010.3
2016-05-17T01:55:07.072Z,1010.26
2016-05-17T01:56:07.059Z,1010.25
2016-05-17T01:57:07.062Z,1010.26
2016-05-17T01:58:07.049Z,1010.25
2016-05-17T01:59:07.052Z,1010.24
2016-05-17T02:00:07.039Z,1010.24
2016-05-17T02:01:07.026Z,1010.21
2016-05-17T02:02:07.029Z,1010.24
2016-05-17T02:03:07.015Z,1010.24
2016-05-17T02:04:07.018Z,1010.23
2016-05-17T02:05:07.005Z,1010.25
2016-05-17T02:06:06.993Z,1010.22
2016-05-17T02:07:06.995Z,1010.19
2016-05-17T02:09:06.985Z,1010.24
2016-05-17T02:10:06.972Z,1010.24
2016-05-17T02:11:06.959Z,1010.23
2016-05-17T02:12:06.962Z,1010.24
2016-05-17T02:13:06.949Z,1010.25
2016-05-17T02:14:06.952Z,1010.23
2016-05-17T02:15:06.939Z,1010.27
2016-05-17T02:16:07.582Z,1010.24
2016-05-17T02:17:06.928Z,1010.23
2016-05-17T02:18:06.916Z,1010.23
2016-05-17T02:19:06.918Z,1010.19
2016-05-17T02:20:08.094Z,1010.24
2016-05-17T02:21:07.157Z,1010.17
2016-05-17T02:22:06.894Z,1010.16
2016-05-17T02:23:06.882Z,1010.17
2016-05-17T02:24:06.885Z,1010.21
2016-05-17T02:25:07.778Z,1010.17
2016-05-17T02:26:06.859Z,1010.26
2016-05-17T02:27:07.565Z,1010.21
2016-05-17T02:28:06.849Z,1010.19
2016-05-17T02:29:06.851Z,1010.2
2016-05-17T02:30:06.838Z,1010.24
2016-05-17T02:31:06.841Z,1010.18
2016-05-17T02:32:06.829Z,1010.18
2016-05-17T02:33:06.831Z,1010.13
2016-05-17T02:34:06.818Z,1010.16
2016-05-17T02:35:06.804Z,1010.12
2016-05-17T02:36:06.807Z,1010.12
2016-05-17T02:37:06.966Z,1010.11
2016-05-17T02:38:06.798Z,1010.15
2016-05-17T02:39:06.784Z,1010.14
2016-05-17T02:40:06.772Z,1010.12
2016-05-17T02:41:06.821Z,1010.1
2016-05-17T02:42:06.761Z,1010.07
2016-05-17T02:43:06.764Z,1010.07
2016-05-17T02:44:06.750Z,1010.06
2016-05-17T02:45:06.753Z,1010.04
2016-05-17T02:46:06.741Z,1010.04
2016-05-17T02:47:06.728Z,1010.01
2016-05-17T02:48:06.731Z,1010.01
2016-05-17T02:49:06.717Z,1010.03
2016-05-17T02:50:06.719Z,1010.01
2016-05-17T02:51:06.707Z,1010.05
2016-05-17T02:52:06.711Z,1010.01
2016-05-17T02:53:06.697Z,1010.02
2016-05-17T02:54:06.685Z,1010.05
2016-05-17T02:55:06.687Z,1010.02
2016-05-17T02:56:06.674Z,1010.05
2016-05-17T02:57:06.677Z,1010.03
2016-05-17T02:58:06.663Z,1010.01
2016-05-17T02:59:06.651Z,1010.06
2016-05-17T03:00:06.654Z,1010.06
2016-05-17T03:01:06.641Z,1010.02
2016-05-17T03:02:06.643Z,1010
2016-05-17T03:03:06.630Z,1010.03
2016-05-17T03:04:06.632Z,1010.04
2016-05-17T03:05:06.620Z,1010.02
2016-05-17T03:06:06.607Z,1010.06
2016-05-17T03:07:06.609Z,1010.02
2016-05-17T03:08:06.597Z,1010.04
2016-05-17T03:09:06.600Z,1010.02
2016-05-17T03:10:06.586Z,1010
2016-05-17T03:11:06.589Z,1010.01
2016-05-17T03:12:06.576Z,1009.98
2016-05-17T03:13:06.579Z,1010
2016-05-17T03:14:06.566Z,1009.96
2016-05-17T03:15:06.553Z,1009.99
2016-05-17T03:16:06.555Z,1010.03
2016-05-17T03:17:06.543Z,1009.99
2016-05-17T03:18:06.545Z,1009.99
2016-05-17T03:19:06.533Z,1010.02
2016-05-17T03:20:06.536Z,1010
2016-05-17T03:21:06.522Z,1010
2016-05-17T03:22:06.509Z,1009.98
2016-05-17T03:23:06.512Z,1009.96
2016-05-17T03:24:06.499Z,1009.95
2016-05-17T03:25:06.502Z,1009.96
2016-05-17T03:26:06.488Z,1009.93
2016-05-17T03:27:06.491Z,1009.97
2016-05-17T03:28:07.135Z,1009.95
2016-05-17T03:29:06.466Z,1009.93
2016-05-17T03:30:06.468Z,1009.9
2016-05-17T03:31:06.455Z,1009.92
2016-05-17T03:32:06.457Z,1009.91
2016-05-17T03:33:06.446Z,1009.95
2016-05-17T03:34:06.449Z,1009.94
2016-05-17T03:35:06.435Z,1009.96
2016-05-17T03:36:06.485Z,1009.93
2016-05-17T03:37:06.425Z,1009.94
2016-05-17T03:38:07.068Z,1009.95
2016-05-17T03:39:07.492Z,1009.94
2016-05-17T03:40:06.402Z,1009.91
2016-05-17T03:41:06.670Z,1009.91
2016-05-17T03:42:06.392Z,1009.91
2016-05-17T03:43:06.394Z,1009.88
2016-05-17T03:44:06.381Z,1009.86
2016-05-17T03:45:06.478Z,1009.89
2016-05-17T03:46:06.370Z,1009.9
2016-05-17T03:47:06.514Z,1009.89
2016-05-17T03:48:06.360Z,1009.88
2016-05-17T03:49:06.348Z,1009.91
2016-05-17T03:50:06.350Z,1009.91
2016-05-17T03:51:06.337Z,1009.86
2016-05-17T03:52:06.341Z,1009.87
2016-05-17T03:53:06.327Z,1009.92
2016-05-17T03:54:06.330Z,1009.89
2016-05-17T03:55:06.316Z,1009.93
2016-05-17T03:56:06.319Z,1009.94
2016-05-17T03:57:06.307Z,1009.98
2016-05-17T03:58:06.294Z,1009.96
2016-05-17T03:59:06.296Z,1009.98
2016-05-17T04:00:06.283Z,1009.99
2016-05-17T04:01:06.286Z,1009.96
2016-05-17T04:02:06.273Z,1009.97
2016-05-17T04:03:06.276Z,1010.03
2016-05-17T04:04:06.262Z,1010.03
2016-05-17T04:05:06.266Z,1010.05
2016-05-17T04:06:06.254Z,1010.02
2016-05-17T04:07:06.256Z,1010.03
2016-05-17T04:08:06.243Z,1010.02
2016-05-17T04:09:06.245Z,1010.06
2016-05-17T04:10:06.232Z,1009.99
2016-05-17T04:11:06.234Z,1010.03
2016-05-17T04:12:06.222Z,1010.03
2016-05-17T04:13:06.209Z,1010.03
2016-05-17T04:14:06.212Z,1010.03
2016-05-17T04:15:06.198Z,1010
2016-05-17T04:16:06.201Z,1010.02
2016-05-17T04:17:06.189Z,1010.02
2016-05-17T04:18:06.191Z,1009.95
2016-05-17T04:19:06.194Z,1009.96
2016-05-17T04:20:06.180Z,1009.98
2016-05-17T04:21:06.169Z,1009.93
2016-05-17T04:22:06.172Z,1009.95
2016-05-17T04:23:06.158Z,1009.99
2016-05-17T04:24:06.161Z,1009.98
2016-05-17T04:25:06.147Z,1009.96
2016-05-17T04:26:06.150Z,1010.01
2016-05-17T04:27:06.137Z,1010.02
2016-05-17T04:28:06.140Z,1010
2016-05-17T04:29:06.127Z,1009.97
2016-05-17T04:30:06.130Z,1009.95
2016-05-17T04:31:06.116Z,1009.97
2016-05-17T04:32:06.119Z,1010.05
2016-05-17T04:33:06.107Z,1010.02
2016-05-17T04:34:06.109Z,1010.02
2016-05-17T04:35:06.096Z,1009.93
2016-05-17T04:36:06.098Z,1009.95
2016-05-17T04:37:06.087Z,1009.93
2016-05-17T04:38:06.090Z,1009.93
2016-05-17T04:39:06.076Z,1010.01
2016-05-17T04:40:06.079Z,1009.96
2016-05-17T04:41:06.065Z,1009.93
2016-05-17T04:42:06.068Z,1009.93
2016-05-17T04:43:06.055Z,1009.99
2016-05-17T04:44:06.058Z,1009.97
2016-05-17T04:45:06.045Z,1009.96
2016-05-17T04:46:06.361Z,1009.93
2016-05-17T04:48:06.037Z,1009.88
2016-05-17T04:49:06.025Z,1009.88
2016-05-17T04:50:06.027Z,1009.83
2016-05-17T04:51:06.139Z,1009.81
2016-05-17T04:52:06.501Z,1009.83
2016-05-17T04:53:06.005Z,1009.84
2016-05-17T04:54:06.008Z,1009.92
2016-05-17T04:55:05.994Z,1009.88
2016-05-17T04:56:07.997Z,1009.9
2016-05-17T04:57:06.655Z,1009.91
2016-05-17T04:58:05.986Z,1009.95
2016-05-17T04:59:05.974Z,1009.97
2016-05-17T05:00:05.976Z,1010
2016-05-17T05:01:05.963Z,1009.97
2016-05-17T05:02:05.966Z,1010.05
2016-05-17T05:03:06.125Z,1010.05
2016-05-17T05:04:06.205Z,1010.08
2016-05-17T05:05:06.708Z,1010.09
2016-05-17T05:06:05.945Z,1010.09
2016-05-17T05:07:06.135Z,1010.2
2016-05-17T05:08:06.028Z,1010.23
2016-05-17T05:09:05.922Z,1010.21
2016-05-17T05:10:05.947Z,1010.17
2016-05-17T05:11:05.976Z,1010.2
2016-05-17T05:12:06.022Z,1010.12
2016-05-17T05:13:06.067Z,1010.13
2016-05-17T05:14:06.097Z,1010.24
2016-05-17T05:15:06.129Z,1010.25
2016-05-17T05:16:06.132Z,1010.17
2016-05-17T05:17:06.151Z,1010.14
2016-05-17T05:18:06.152Z,1010.15
2016-05-17T05:19:06.171Z,1010.11
2016-05-17T05:20:06.184Z,1010.1
2016-05-17T05:21:06.176Z,1010.02
2016-05-17T05:22:06.731Z,1010.03
2016-05-17T05:23:06.177Z,1010.04
2016-05-17T05:24:06.184Z,1010.08
2016-05-17T05:25:06.175Z,1010.07
2016-05-17T05:26:06.180Z,1010.09
2016-05-17T05:27:06.185Z,1010.18
2016-05-17T05:28:06.174Z,1010.17
2016-05-17T05:29:06.179Z,1010.22
2016-05-17T05:30:06.167Z,1010.19
2016-05-17T05:31:06.170Z,1010.19
2016-05-17T05:32:06.157Z,1010.1
2016-05-17T05:33:06.161Z,1010.12
2016-05-17T05:34:06.150Z,1010.14
2016-05-17T05:35:06.152Z,1010.1
2016-05-17T05:36:06.156Z,1010.11
2016-05-17T05:37:06.143Z,1010.14
2016-05-17T05:38:06.146Z,1010.21
2016-05-17T05:39:06.133Z,1010.22
2016-05-17T05:40:06.136Z,1010.23
2016-05-17T05:41:06.123Z,1010.25
2016-05-17T05:42:06.126Z,1010.28
2016-05-17T05:43:06.129Z,1010.39
2016-05-17T05:44:06.116Z,1010.35
2016-05-17T05:45:06.118Z,1010.38
2016-05-17T05:46:06.106Z,1010.36
2016-05-17T05:47:06.109Z,1010.38
2016-05-17T05:48:06.111Z,1010.39
2016-05-17T05:49:06.099Z,1010.36
2016-05-17T05:50:06.100Z,1010.37
2016-05-17T05:51:06.087Z,1010.35
2016-05-17T05:52:06.090Z,1010.35
2016-05-17T05:53:06.078Z,1010.37
2016-05-17T05:54:06.081Z,1010.24
2016-05-17T05:55:06.068Z,1010.28
2016-05-17T05:56:06.070Z,1010.32
2016-05-17T05:57:06.073Z,1010.38
2016-05-17T05:58:06.060Z,1010.45
2016-05-17T05:59:06.062Z,1010.49
2016-05-17T06:00:07.097Z,1010.5
2016-05-17T06:01:06.053Z,1010.54
2016-05-17T06:02:06.055Z,1010.53
2016-05-17T06:03:06.042Z,1010.56
2016-05-17T06:04:06.045Z,1010.59
2016-05-17T06:05:06.047Z,1010.59
2016-05-17T06:06:06.035Z,1010.61
2016-05-17T06:07:07.443Z,1010.58
2016-05-17T06:08:06.915Z,1010.57
2016-05-17T06:09:06.027Z,1010.56
2016-05-17T06:10:06.405Z,1010.53
2016-05-17T06:11:06.298Z,1010.48
2016-05-17T06:12:06.019Z,1010.49
2016-05-17T06:13:06.474Z,1010.54
2016-05-17T06:14:06.009Z,1010.51
2016-05-17T06:15:06.012Z,1010.51
2016-05-17T06:16:05.999Z,1010.63
2016-05-17T06:17:06.001Z,1010.7
2016-05-17T06:18:06.004Z,1010.7
2016-05-17T06:19:05.991Z,1010.65
2016-05-17T06:20:05.993Z,1010.61
2016-05-17T06:21:05.997Z,1010.68
2016-05-17T06:22:05.984Z,1010.8
2016-05-17T06:23:06.689Z,1010.78
2016-05-17T06:24:05.989Z,1010.84
2016-05-17T06:25:06.289Z,1010.89
2016-05-17T06:26:05.979Z,1011.02
2016-05-17T06:27:05.982Z,1011.08
2016-05-17T06:28:05.970Z,1011.07
2016-05-17T06:29:05.971Z,1011.08
2016-05-17T06:30:05.975Z,1011
2016-05-17T06:31:05.977Z,1011.05
2016-05-17T06:32:05.964Z,1010.97
2016-05-17T06:33:05.967Z,1010.83
2016-05-17T06:34:05.970Z,1010.88
2016-05-17T06:35:05.956Z,1010.88
2016-05-17T06:36:05.959Z,1010.7
2016-05-17T06:37:05.962Z,1010.95
2016-05-17T06:38:05.949Z,1011.01
2016-05-17T06:39:05.952Z,1010.99
2016-05-17T06:40:05.954Z,1010.91
2016-05-17T06:41:05.957Z,1010.87
2016-05-17T06:42:05.944Z,1010.94
2016-05-17T06:43:05.947Z,1010.89
2016-05-17T06:44:05.949Z,1010.84
2016-05-17T06:45:05.952Z,1010.85
2016-05-17T06:46:05.955Z,1010.79
2016-05-17T06:47:05.941Z,1010.81
2016-05-17T06:48:05.944Z,1010.74
2016-05-17T06:49:05.946Z,1010.84
2016-05-17T06:50:05.949Z,1010.92
2016-05-17T06:51:05.937Z,1011.02
2016-05-17T06:52:06.112Z,1010.91
2016-05-17T06:53:05.942Z,1010.83
2016-05-17T06:54:05.945Z,1010.75
2016-05-17T06:55:05.948Z,1010.85
2016-05-17T06:56:05.934Z,1010.8
2016-05-17T06:57:05.937Z,1010.83
2016-05-17T06:58:05.939Z,1010.88
2016-05-17T06:59:05.943Z,1010.91
2016-05-17T07:00:05.930Z,1010.92
2016-05-17T07:01:05.933Z,1010.97
2016-05-17T07:02:05.935Z,1011.03
2016-05-17T07:03:05.922Z,1011.02
2016-05-17T07:04:05.941Z,1011.05
2016-05-17T07:05:05.927Z,1011
2016-05-17T07:06:05.930Z,1011
2016-05-17T07:07:05.933Z,1010.95
2016-05-17T07:08:05.936Z,1010.79
2016-05-17T07:09:05.922Z,1010.81
2016-05-17T07:10:05.925Z,1010.79
2016-05-17T07:11:05.927Z,1010.76
2016-05-17T07:12:05.930Z,1010.84
2016-05-17T07:13:05.918Z,1010.86
2016-05-17T07:14:05.921Z,1010.85
2016-05-17T07:15:05.923Z,1010.83
2016-05-17T07:16:05.926Z,1010.82
2016-05-17T07:17:05.913Z,1010.87
2016-05-17T07:18:05.916Z,1010.89
2016-05-17T07:19:05.918Z,1010.83
2016-05-17T07:20:05.921Z,1010.87
2016-05-17T07:21:05.907Z,1010.92
2016-05-17T07:22:05.910Z,1010.92
2016-05-17T07:23:05.913Z,1010.91
2016-05-17T07:24:05.915Z,1011.01
2016-05-17T07:25:05.904Z,1011.07
2016-05-17T07:26:07.312Z,1011.03
2016-05-17T07:27:06.331Z,1010.99
2016-05-17T07:28:05.912Z,1011.06
2016-05-17T07:29:05.898Z,1011.06
2016-05-17T07:30:06.651Z,1011.06
2016-05-17T07:31:05.903Z,1011.09
2016-05-17T07:32:06.797Z,1011.03
2016-05-17T07:34:06.693Z,1011.08
2016-05-17T07:35:05.899Z,1011.08
2016-05-17T07:36:05.902Z,1010.96
2016-05-17T07:37:05.905Z,1010.88
2016-05-17T07:38:06.469Z,1010.8
2016-05-17T07:39:05.894Z,1010.81
2016-05-17T07:40:05.897Z,1010.85
2016-05-17T07:41:05.899Z,1010.94
2016-05-17T07:42:06.386Z,1011.02
2016-05-17T07:43:05.889Z,1011.13
2016-05-17T07:44:05.891Z,1011.16
2016-05-17T07:45:05.894Z,1011.19
2016-05-17T07:46:05.896Z,1011.23
2016-05-17T07:47:05.885Z,1011.22
2016-05-17T07:48:05.888Z,1011.3
2016-05-17T07:49:05.890Z,1011.28
2016-05-17T07:50:05.893Z,1011.29
2016-05-17T07:51:05.895Z,1011.37
2016-05-17T07:52:05.898Z,1011.3
2016-05-17T07:53:05.885Z,1011.25
2016-05-17T07:54:05.887Z,1011.23
2016-05-17T07:55:05.890Z,1011.32
2016-05-17T07:56:05.892Z,1011.25
2016-05-17T07:57:05.896Z,1011.06
2016-05-17T07:58:05.898Z,1010.91
2016-05-17T07:59:05.901Z,1010.81
2016-05-17T08:00:05.904Z,1010.8
2016-05-17T08:01:05.890Z,1010.76
2016-05-17T08:02:05.893Z,1010.61
2016-05-17T08:03:05.896Z,1010.59
2016-05-17T08:04:05.898Z,1010.51
2016-05-17T08:05:05.901Z,1010.68
2016-05-17T08:06:05.903Z,1010.81
2016-05-17T08:07:05.907Z,1010.94
2016-05-17T08:08:05.909Z,1010.9
2016-05-17T08:09:05.896Z,1010.93
2016-05-17T08:10:05.900Z,1010.9
2016-05-17T08:11:05.902Z,1011
2016-05-17T08:12:05.905Z,1011.11
2016-05-17T08:13:05.908Z,1011.17
2016-05-17T08:14:05.910Z,1011.28
2016-05-17T08:15:05.913Z,1011.25
2016-05-17T08:16:05.915Z,1011.1
2016-05-17T08:17:05.902Z,1011.15
2016-05-17T08:18:05.905Z,1011.24
2016-05-17T08:19:05.907Z,1011.36
2016-05-17T08:20:05.910Z,1011.38
2016-05-17T08:21:05.929Z,1011.42
2016-05-17T08:22:06.009Z,1011.45
2016-05-17T08:23:05.904Z,1011.44
2016-05-17T08:24:05.906Z,1011.43
2016-05-17T08:25:05.909Z,1011.35
2016-05-17T08:26:05.911Z,1011.5
2016-05-17T08:27:06.117Z,1011.42
2016-05-17T08:28:05.917Z,1011.52
2016-05-17T08:29:05.919Z,1011.53
2016-05-17T08:30:05.922Z,1011.64
2016-05-17T08:31:05.925Z,1011.45
2016-05-17T08:32:05.928Z,1011.34
2016-05-17T08:33:05.930Z,1011.33
2016-05-17T08:34:05.979Z,1011.16
2016-05-17T08:35:05.936Z,1011.05
2016-05-17T08:36:05.939Z,1011.04
2016-05-17T08:37:06.112Z,1011.09
2016-05-17T08:38:05.944Z,1011.04
2016-05-17T08:39:05.947Z,1010.9
2016-05-17T08:40:05.949Z,1010.86
2016-05-17T08:41:05.936Z,1010.8
2016-05-17T08:42:05.955Z,1010.9
2016-05-17T08:43:05.941Z,1010.95
2016-05-17T08:44:05.960Z,1010.82
2016-05-17T08:45:06.680Z,1010.71
2016-05-17T08:46:05.949Z,1010.78
2016-05-17T08:47:05.952Z,1010.81
2016-05-17T08:48:05.955Z,1010.8
2016-05-17T08:49:06.707Z,1010.79
2016-05-17T08:50:05.960Z,1010.75
2016-05-17T08:51:06.868Z,1010.69
2016-05-17T08:52:06.512Z,1010.74
2016-05-17T08:53:07.077Z,1010.84
2016-05-17T08:54:06.471Z,1010.85
2016-05-17T08:55:06.224Z,1010.87
2016-05-17T08:56:06.085Z,1010.8
2016-05-17T08:57:05.963Z,1010.83
2016-05-17T08:58:05.966Z,1010.9
2016-05-17T08:59:06.328Z,1011
2016-05-17T09:00:05.971Z,1011.23
2016-05-17T09:01:06.427Z,1011.21
2016-05-17T09:02:05.976Z,1011.16
2016-05-17T09:03:05.979Z,1011.11
2016-05-17T09:04:05.981Z,1011.2
2016-05-17T09:05:05.969Z,1011.33
2016-05-17T09:06:05.972Z,1011.28
2016-05-17T09:07:05.974Z,1011.2
2016-05-17T09:08:05.977Z,1011.06
2016-05-17T09:09:05.980Z,1010.96
2016-05-17T09:10:05.983Z,1010.95
2016-05-17T09:11:05.986Z,1010.93
2016-05-17T09:12:05.988Z,1011.02
2016-05-17T09:13:05.975Z,1011.09
2016-05-17T09:14:05.977Z,1011.14
2016-05-17T09:15:05.981Z,1011.13
2016-05-17T09:16:05.983Z,1011.19
2016-05-17T09:17:05.986Z,1011.13
2016-05-17T09:18:05.988Z,1011.13
2016-05-17T09:19:05.991Z,1010.94
2016-05-17T09:20:05.993Z,1010.87
2016-05-17T09:21:05.996Z,1010.71
2016-05-17T09:22:05.983Z,1010.72
2016-05-17T09:23:05.986Z,1010.67
2016-05-17T09:24:05.989Z,1010.7
2016-05-17T09:25:05.991Z,1010.75
2016-05-17T09:26:05.994Z,1010.73
2016-05-17T09:27:05.997Z,1010.68
2016-05-17T09:28:05.999Z,1010.68
2016-05-17T09:29:06.002Z,1010.63
2016-05-17T09:30:06.005Z,1010.65
2016-05-17T09:31:05.992Z,1010.72
2016-05-17T09:32:05.995Z,1010.79
2016-05-17T09:33:05.998Z,1010.83
2016-05-17T09:34:06.001Z,1010.89
2016-05-17T09:35:06.003Z,1010.88
2016-05-17T09:36:06.006Z,1010.87
2016-05-17T09:37:06.009Z,1010.9
2016-05-17T09:38:06.011Z,1010.93
2016-05-17T09:39:05.998Z,1010.94
2016-05-17T09:40:06.001Z,1011
2016-05-17T09:41:06.003Z,1010.95
2016-05-17T09:42:06.006Z,1010.91
2016-05-17T09:43:06.009Z,1010.82
2016-05-17T09:44:06.011Z,1010.91
2016-05-17T09:45:05.999Z,1010.87
2016-05-17T09:46:06.001Z,1010.89
2016-05-17T09:47:06.004Z,1010.9
2016-05-17T09:48:06.007Z,1010.78
2016-05-17T09:49:06.009Z,1010.78
2016-05-17T09:50:05.996Z,1010.77
2016-05-17T09:51:05.999Z,1010.81
2016-05-17T09:52:06.002Z,1010.87
2016-05-17T09:53:06.005Z,1010.92
2016-05-17T09:54:06.008Z,1010.96
2016-05-17T09:55:05.993Z,1011.01
2016-05-17T09:56:05.997Z,1011.11
2016-05-17T09:57:06.000Z,1011.18
2016-05-17T09:58:06.002Z,1011.21
2016-05-17T09:59:06.005Z,1011.2
2016-05-17T10:00:05.992Z,1011.15
2016-05-17T10:01:06.010Z,1011.03
2016-05-17T10:02:05.998Z,1011.04
2016-05-17T10:03:06.000Z,1011.02
2016-05-17T10:04:06.175Z,1010.97
2016-05-17T10:05:05.990Z,1010.89
2016-05-17T10:06:05.992Z,1010.86
2016-05-17T10:07:05.995Z,1010.71
2016-05-17T10:08:05.998Z,1010.72
2016-05-17T10:09:06.001Z,1010.7
2016-05-17T10:10:07.191Z,1010.75
2016-05-17T10:11:06.912Z,1010.82
2016-05-17T10:12:07.539Z,1010.91
2016-05-17T10:13:05.996Z,1010.97
2016-05-17T10:14:05.998Z,1011.09
2016-05-17T10:15:06.001Z,1011.03
2016-05-17T10:16:05.989Z,1011
2016-05-17T10:17:05.991Z,1011.02
2016-05-17T10:18:07.197Z,1011.06
2016-05-17T10:19:05.997Z,1011.13
2016-05-17T10:20:06.046Z,1011.17
2016-05-17T10:21:06.002Z,1011.17
2016-05-17T10:22:06.005Z,1011.16
2016-05-17T10:23:05.991Z,1011.18
2016-05-17T10:24:05.994Z,1011.17
2016-05-17T10:25:05.996Z,1011.15
2016-05-17T10:26:06.000Z,1011.03
2016-05-17T10:27:06.002Z,1011.08
2016-05-17T10:28:05.989Z,1011.15
2016-05-17T10:29:05.993Z,1011.17
2016-05-17T10:30:05.995Z,1011.23
2016-05-17T10:31:05.997Z,1011.13
2016-05-17T10:32:06.001Z,1011.04
2016-05-17T10:33:06.003Z,1010.96
2016-05-17T10:34:06.006Z,1011.02
2016-05-17T10:35:06.009Z,1010.86
2016-05-17T10:36:06.011Z,1010.82
2016-05-17T10:37:06.450Z,1010.69
2016-05-17T10:38:06.017Z,1010.71
2016-05-17T10:39:06.003Z,1010.8
2016-05-17T10:40:06.006Z,1010.96
2016-05-17T10:41:06.009Z,1011.1
2016-05-17T10:42:06.012Z,1011.17
2016-05-17T10:43:06.014Z,1011.25
2016-05-17T10:44:06.017Z,1011.27
2016-05-17T10:45:06.020Z,1011.24
2016-05-17T10:46:06.022Z,1011.12
2016-05-17T10:47:06.025Z,1011.01
2016-05-17T10:48:06.028Z,1010.95
2016-05-17T10:49:06.030Z,1011.04
2016-05-17T10:50:06.033Z,1011.1
2016-05-17T10:51:06.020Z,1011.03
2016-05-17T10:52:06.023Z,1011.06
2016-05-17T10:53:06.025Z,1011.09
2016-05-17T10:54:06.028Z,1011.06
2016-05-17T10:55:06.030Z,1011.07
2016-05-17T10:56:06.033Z,1011.05
2016-05-17T10:57:06.036Z,1011.04
2016-05-17T10:58:06.038Z,1011.03
2016-05-17T10:59:06.041Z,1011.07
2016-05-17T11:00:06.044Z,1011.09
2016-05-17T11:01:06.047Z,1011.09
2016-05-17T11:02:06.049Z,1011.01
2016-05-17T11:03:06.052Z,1011.02
2016-05-17T11:04:06.039Z,1011.09
2016-05-17T11:05:06.042Z,1011.07
2016-05-17T11:06:06.045Z,1011.11
2016-05-17T11:07:06.047Z,1011.22
2016-05-17T11:08:06.050Z,1011.35
2016-05-17T11:09:06.053Z,1011.36
2016-05-17T11:10:06.056Z,1011.3
2016-05-17T11:11:06.058Z,1011.22
2016-05-17T11:12:06.061Z,1011.2
2016-05-17T11:13:06.063Z,1011.27
2016-05-17T11:14:06.066Z,1011.35
2016-05-17T11:15:06.069Z,1011.33
2016-05-17T11:16:06.071Z,1011.34
2016-05-17T11:17:06.074Z,1011.28
2016-05-17T11:18:06.077Z,1011.29
2016-05-17T11:19:06.080Z,1011.32
2016-05-17T11:20:06.083Z,1011.34
2016-05-17T11:21:07.008Z,1011.24
2016-05-17T11:22:06.087Z,1011.19
2016-05-17T11:23:06.090Z,1011.13
2016-05-17T11:24:06.094Z,1011.29
2016-05-17T11:25:06.096Z,1011.2
2016-05-17T11:26:06.099Z,1011.11
2016-05-17T11:29:06.966Z,1010.84
2016-05-17T11:32:06.130Z,1010.7
2016-05-17T11:36:06.548Z,1010.78
2016-05-17T11:39:06.149Z,1010.91
2016-05-17T11:40:06.151Z,1010.89
2016-05-17T11:41:06.154Z,1010.95
2016-05-17T11:43:06.159Z,1011.06
2016-05-17T11:44:06.162Z,1011.14
2016-05-17T11:45:06.164Z,1011.14
2016-05-17T11:46:06.167Z,1011.17
2016-05-17T11:47:06.170Z,1011.22
2016-05-17T11:48:06.158Z,1011.16
2016-05-17T11:49:06.160Z,1011.18
2016-05-17T11:50:06.163Z,1011.11
2016-05-17T11:51:06.166Z,1010.96
2016-05-17T11:52:06.168Z,1010.98
2016-05-17T11:53:06.171Z,1010.97
2016-05-17T11:54:06.174Z,1010.99
2016-05-17T11:55:06.176Z,1011.12
2016-05-17T11:56:06.163Z,1011.08
2016-05-17T11:57:06.166Z,1011.04
2016-05-17T11:58:06.168Z,1010.99
2016-05-17T11:59:06.172Z,1010.94
2016-05-17T12:00:06.175Z,1010.94
2016-05-17T12:01:06.176Z,1010.93
2016-05-17T12:02:06.179Z,1010.88
2016-05-17T12:03:06.182Z,1010.85
2016-05-17T12:04:06.185Z,1010.82
2016-05-17T12:05:06.171Z,1010.78
2016-05-17T12:06:06.175Z,1010.81
2016-05-17T12:07:06.177Z,1010.84
2016-05-17T12:08:06.179Z,1010.86
2016-05-17T12:09:06.182Z,1010.76
2016-05-17T12:10:06.185Z,1010.77
2016-05-17T12:11:06.187Z,1010.88
2016-05-17T12:12:06.190Z,1010.85
2016-05-17T12:13:06.193Z,1010.8
2016-05-17T12:14:06.196Z,1010.97
2016-05-17T12:15:06.198Z,1010.82
2016-05-17T12:16:06.201Z,1010.87
2016-05-17T12:17:06.204Z,1010.97
2016-05-17T12:18:06.206Z,1010.84
2016-05-17T12:19:06.209Z,1010.88
2016-05-17T12:20:06.212Z,1010.82
2016-05-17T12:21:06.215Z,1010.75
2016-05-17T12:22:06.233Z,1010.83
2016-05-17T12:23:06.220Z,1010.88